Time;durP1;ratioP1;P1;durP2;ratioP2;P2;SDS_P1;SDS_P2;PMS_P1;PMS_P2;Temp;Humidity;BMP_temperature;BMP_pressure;BME280_temperature;BME280_humidity;BME280_pressure;Samples;Min_cycle;Max_cycle;Signal;HPM_P1;HPM_P2
2021/08/22 00:04:06;;;;;;;9.75;4.85;;;;;;;18.87;86.77;100584.19;20720442;28;20058;-71
2021/08/22 00:14:08;;;;;;;12.48;5.03;;;;;;;18.78;86.37;100553.66;20732578;28;20045;-71
2021/08/22 00:24:09;;;;;;;9.95;4.43;;;;;;;18.62;88.53;100516.34;20744861;28;20037;-69
2021/08/22 00:34:11;;;;;;;8.20;4.13;;;;;;;18.60;88.52;100481.09;20739263;28;20046;-70
2021/08/22 00:44:13;;;;;;;8.95;4.43;;;;;;;18.59;87.96;100487.31;20742310;28;20070;-72
2021/08/22 00:54:15;;;;;;;8.77;3.97;;;;;;;18.51;88.12;100502.72;20742652;28;20072;-74
2021/08/22 01:04:16;;;;;;;6.72;4.05;;;;;;;18.38;85.94;100477.72;20740682;28;20510;-73
2021/08/22 01:14:26;;;;;;;6.65;3.08;;;;;;;18.32;86.42;100456.81;20741573;28;20476;-72
2021/08/22 01:24:29;;;;;;;8.23;3.78;;;;;;;18.19;87.54;100446.75;20739545;28;20459;-72
2021/08/22 01:34:31;;;;;;;6.75;3.42;;;;;;;18.14;87.36;100429.34;20739706;28;20042;-72
2021/08/22 01:44:34;;;;;;;6.78;3.20;;;;;;;18.00;87.92;100432.66;20738597;28;20045;-72
2021/08/22 01:54:36;;;;;;;7.82;3.30;;;;;;;17.77;87.93;100436.31;20738050;28;20054;-71
2021/08/22 02:04:59;;;;;;;7.93;3.50;;;;;;;17.61;88.76;100438.78;20737313;28;20050;-71
2021/08/22 02:15:05;;;;;;;7.63;3.30;;;;;;;17.52;88.74;100441.81;20735929;28;20544;-72
2021/08/22 02:25:11;;;;;;;6.40;3.40;;;;;;;17.49;89.42;100447.28;20735706;28;20125;-72
2021/08/22 02:35:13;;;;;;;5.95;3.22;;;;;;;17.49;89.52;100446.41;20734315;28;20073;-71
2021/08/22 02:45:15;;;;;;;7.43;3.47;;;;;;;17.54;89.20;100455.88;20734361;28;20480;-72
2021/08/22 02:55:17;;;;;;;6.75;3.30;;;;;;;17.38;89.12;100465.38;20732910;28;20537;-72
2021/08/22 03:05:19;;;;;;;9.10;3.90;;;;;;;17.12;90.38;100463.84;20732772;28;20389;-72
2021/08/22 03:15:21;;;;;;;8.40;3.85;;;;;;;17.15;89.62;100469.88;20732338;28;20045;-71
2021/08/22 03:25:23;;;;;;;7.78;3.88;;;;;;;17.18;89.86;100476.81;20731503;28;20046;-72
2021/08/22 03:35:25;;;;;;;9.13;4.32;;;;;;;16.98;89.47;100482.94;20730503;28;20046;-72
2021/08/22 03:45:27;;;;;;;7.75;3.72;;;;;;;17.11;90.26;100484.16;20730399;28;20119;-72
2021/08/22 03:55:29;;;;;;;8.10;4.20;;;;;;;17.08;90.54;100489.56;20727123;28;20041;-71
2021/08/22 04:05:30;;;;;;;8.23;4.47;;;;;;;17.12;90.09;100475.28;20728980;28;20080;-72
2021/08/22 04:15:32;;;;;;;8.32;4.43;;;;;;;17.13;90.07;100484.09;20728819;28;20046;-71
2021/08/22 04:25:34;;;;;;;9.85;5.25;;;;;;;17.17;90.45;100483.91;20728583;28;20042;-71
2021/08/22 04:35:36;;;;;;;8.48;4.07;;;;;;;17.33;90.60;100501.78;20727641;28;20037;-71
2021/08/22 04:45:37;;;;;;;10.02;5.05;;;;;;;17.46;89.99;100510.06;20728098;28;20430;-71
2021/08/22 04:55:39;;;;;;;8.65;4.68;;;;;;;17.64;90.05;100522.53;20726565;28;20053;-72
2021/08/22 05:05:41;;;;;;;8.45;4.43;;;;;;;17.80;89.67;100510.38;20733690;28;20080;-72
2021/08/22 05:15:43;;;;;;;9.82;4.97;;;;;;;17.83;89.87;100501.44;20741862;28;20054;-72
2021/08/22 05:25:45;;;;;;;8.63;4.78;;;;;;;17.90;89.86;100510.81;20740936;28;20488;-72
2021/08/22 05:35:46;;;;;;;8.73;4.78;;;;;;;18.00;89.90;100512.13;20739582;28;20103;-71
2021/08/22 05:45:48;;;;;;;8.27;4.38;;;;;;;18.02;89.40;100531.47;20739726;28;20143;-71
2021/08/22 05:55:50;;;;;;;10.55;4.88;;;;;;;18.35;88.04;100534.41;20720644;28;20052;-71
2021/08/22 06:05:53;;;;;;;8.02;4.97;;;;;;;18.43;88.30;100539.34;20719953;28;20042;-71
2021/08/22 06:15:55;;;;;;;10.18;5.20;;;;;;;18.56;88.73;100548.44;20736725;28;20050;-71
2021/08/22 06:25:56;;;;;;;10.40;5.40;;;;;;;18.76;87.21;100557.31;20735998;28;20112;-71
2021/08/22 06:35:59;;;;;;;14.10;6.65;;;;;;;18.90;87.18;100562.81;20733456;28;20041;-72
2021/08/22 06:46:01;;;;;;;9.15;5.30;;;;;;;19.07;86.71;100557.56;20734326;28;20481;-71
2021/08/22 06:56:03;;;;;;;12.98;5.65;;;;;;;19.42;85.47;100557.63;20730511;28;20077;-71
2021/08/22 07:06:05;;;;;;;11.40;6.32;;;;;;;19.60;84.32;100564.72;20729111;28;20034;-70
2021/08/22 07:16:06;;;;;;;9.65;5.70;;;;;;;19.73;84.82;100565.78;20738695;28;20068;-70
2021/08/22 07:26:08;;;;;;;12.27;6.55;;;;;;;19.52;86.12;100552.72;20736808;28;20096;-70
2021/08/22 07:36:10;;;;;;;9.18;5.68;;;;;;;19.65;85.53;100562.69;20735280;28;20042;-70
2021/08/22 07:46:11;;;;;;;11.00;6.65;;;;;;;20.05;84.16;100575.72;20728391;28;20050;-70
2021/08/22 07:56:13;;;;;;;11.82;6.38;;;;;;;20.25;83.17;100584.34;20734123;28;20041;-70
2021/08/22 08:06:15;;;;;;;9.60;5.68;;;;;;;20.53;82.94;100580.25;20731505;28;20100;-70
2021/08/22 08:16:16;;;;;;;11.90;6.10;;;;;;;20.69;81.62;100583.78;20733197;28;20049;-71
2021/08/22 08:26:18;;;;;;;11.57;6.28;;;;;;;20.99;80.91;100588.38;20732449;28;20131;-70
2021/08/22 08:36:19;;;;;;;10.38;6.13;;;;;;;20.36;84.50;100594.44;20737557;28;20041;-70
2021/08/22 08:46:25;;;;;;;9.95;6.90;;;;;;;20.49;84.65;100589.34;20747644;28;20045;-71
2021/08/22 08:56:32;;;;;;;11.07;7.90;;;;;;;20.16;85.91;100591.94;20747094;28;20054;-70
2021/08/22 09:07:05;;;;;;;12.20;8.07;;;;;;;19.92;87.33;100602.91;20743412;28;20038;-71
2021/08/22 09:17:38;;;;;;;11.27;7.55;;;;;;;19.69;89.10;100577.53;20744707;28;20046;-69
2021/08/22 09:28:01;;;;;;;11.05;8.02;;;;;;;19.93;86.88;100582.50;20743820;28;20049;-70
2021/08/22 09:38:22;;;;;;;12.95;7.90;;;;;;;19.89;87.53;100604.88;20738296;28;20531;-70
2021/08/22 09:49:05;;;;;;;10.35;7.15;;;;;;;20.10;85.83;100621.53;20741164;28;20745;-70
2021/08/22 09:59:19;;;;;;;9.52;5.55;;;;;;;20.23;84.37;100627.94;20696984;28;20572;-70
2021/08/22 10:09:25;;;;;;;6.80;3.40;;;;;;;19.69;84.29;100632.44;20737044;28;20043;-70
2021/08/22 10:19:28;;;;;;;7.07;4.60;;;;;;;19.73;83.17;100613.59;20736707;28;20050;-69
2021/08/22 10:29:48;;;;;;;6.85;4.18;;;;;;;20.10;85.04;100601.09;20733990;28;21445;-70
2021/08/22 10:39:50;;;;;;;7.72;4.25;;;;;;;20.21;84.57;100590.75;20732186;28;20042;-70
2021/08/22 10:49:51;;;;;;;6.80;4.25;;;;;;;20.22;83.61;100608.47;20735792;28;20054;-70
2021/08/22 11:00:20;;;;;;;6.15;3.78;;;;;;;20.34;84.34;100608.75;20737974;28;20042;-69
2021/08/22 11:10:28;;;;;;;7.93;4.60;;;;;;;20.41;82.89;100607.47;20723155;28;20050;-71
2021/08/22 11:20:32;;;;;;;6.55;4.22;;;;;;;20.67;83.15;100606.97;20733218;28;20050;-70
2021/08/22 11:30:35;;;;;;;6.90;4.55;;;;;;;20.79;83.69;100609.88;20735649;28;20506;-70
2021/08/22 11:40:38;;;;;;;6.72;4.28;;;;;;;21.30;82.12;100602.59;20736454;28;20104;-69
2021/08/22 11:50:40;;;;;;;6.55;4.72;;;;;;;21.21;81.66;100586.19;20727290;28;20042;-70
2021/08/22 12:00:46;;;;;;;8.15;5.38;;;;;;;20.87;83.08;100586.38;20742058;28;20076;-70
2021/08/22 12:10:48;;;;;;;9.98;6.13;;;;;;;20.86;83.88;100566.03;20742233;28;20058;-69
2021/08/22 12:21:14;;;;;;;11.52;6.57;;;;;;;20.96;83.56;100572.56;20754258;28;20104;-71
2021/08/22 12:31:16;;;;;;;12.65;6.43;;;;;;;21.05;81.83;100569.38;20732892;28;20042;-72
2021/08/22 12:41:32;;;;;;;9.65;6.88;;;;;;;20.66;82.92;100580.44;20732147;28;20052;-71
2021/08/22 12:51:37;;;;;;;9.45;6.38;;;;;;;20.50;83.29;100561.78;20731271;28;20070;-71
2021/08/22 13:01:39;;;;;;;10.93;6.47;;;;;;;20.21;84.05;100571.28;20731063;28;20038;-70
2021/08/22 13:11:41;;;;;;;10.75;6.30;;;;;;;20.23;85.23;100586.25;20729038;28;20126;-70
2021/08/22 13:21:43;;;;;;;8.07;5.10;;;;;;;20.05;84.76;100587.19;20734896;28;20488;-70
2021/08/22 13:31:47;;;;;;;10.13;5.43;;;;;;;19.90;85.49;100580.03;20744802;28;20054;-68
2021/08/22 13:41:49;;;;;;;8.73;5.77;;;;;;;19.80;84.21;100569.00;20745170;28;20416;-68
2021/08/22 13:51:51;;;;;;;8.00;5.00;;;;;;;19.78;85.43;100573.53;20743935;28;20050;-68
2021/08/22 14:01:53;;;;;;;8.30;4.78;;;;;;;19.47;85.74;100579.50;20739324;28;20046;-68
2021/08/22 14:11:55;;;;;;;6.50;3.50;;;;;;;18.61;84.83;100593.31;20737053;28;20576;-68
2021/08/22 14:21:56;;;;;;;4.28;2.10;;;;;;;18.38;84.64;100591.72;20739316;28;20076;-68
2021/08/22 14:31:58;;;;;;;6.03;2.20;;;;;;;18.45;83.90;100599.34;20739769;28;20080;-68
2021/08/22 14:42:03;;;;;;;6.45;2.50;;;;;;;18.44;86.26;100586.13;20739218;28;20496;-68
2021/08/22 14:52:05;;;;;;;;;;;;;;;18.61;87.40;100610.09;20732068;28;20054;-68
2021/08/22 15:02:07;;;;;;;7.82;3.60;;;;;;;18.56;87.46;100609.44;20721791;28;19921;-68
2021/08/22 15:12:09;;;;;;;9.43;3.58;;;;;;;18.34;86.22;100575.06;20736197;28;20481;-68
2021/08/22 15:22:13;;;;;;;6.25;3.72;;;;;;;18.37;86.76;100588.19;20734539;28;20111;-68
2021/08/22 15:32:14;;;;;;;6.35;2.95;;;;;;;18.44;85.72;100618.81;20731404;28;20080;-69
2021/08/22 15:42:16;;;;;;;7.60;3.83;;;;;;;18.64;86.08;100635.63;20726038;28;20512;-71
2021/08/22 15:52:19;;;;;;;8.07;3.40;;;;;;;18.76;86.19;100642.19;20729972;28;20474;-70
2021/08/22 16:02:21;;;;;;;7.50;3.65;;;;;;;19.21;83.93;100647.13;20725815;28;20042;-71
2021/08/22 16:12:23;;;;;;;7.88;3.72;;;;;;;19.34;83.17;100631.47;20732857;28;20049;-72
2021/08/22 16:22:24;;;;;;;9.20;3.85;;;;;;;19.35;83.98;100641.16;20732711;28;20069;-69
2021/08/22 16:32:26;;;;;;;6.15;3.75;;;;;;;19.40;83.79;100633.84;20731563;28;20046;-69
2021/08/22 16:42:30;;;;;;;7.38;4.10;;;;;;;19.49;83.43;100630.72;20734842;28;20050;-71
2021/08/22 16:52:33;;;;;;;7.18;3.80;;;;;;;19.50;82.74;100632.47;20730744;28;20401;-70
2021/08/22 17:02:35;;;;;;;6.78;4.18;;;;;;;19.46;81.79;100615.81;20744494;28;20104;-68
2021/08/22 17:12:37;;;;;;;9.27;3.80;;;;;;;19.35;82.80;100618.13;20745683;28;20058;-69
2021/08/22 17:22:40;;;;;;;6.55;4.07;;;;;;;19.26;84.01;100617.72;20744974;28;20042;-70
2021/08/22 17:32:42;;;;;;;6.38;4.10;;;;;;;19.06;83.69;100632.78;20736659;28;20034;-70
2021/08/22 17:42:44;;;;;;;8.15;4.13;;;;;;;18.70;85.34;100646.84;20742321;28;20042;-70
2021/08/22 17:52:45;;;;;;;8.68;4.45;;;;;;;18.48;85.93;100651.34;20742435;28;20041;-71
2021/08/22 18:02:47;;;;;;;8.45;4.50;;;;;;;18.09;86.52;100662.75;20740433;28;20353;-71
2021/08/22 18:12:48;;;;;;;7.07;4.03;;;;;;;17.82;87.78;100666.56;20740741;28;20050;-70
2021/08/22 18:22:50;;;;;;;7.32;4.28;;;;;;;17.74;87.72;100689.88;20739958;28;20412;-70
2021/08/22 18:32:52;;;;;;;8.60;4.32;;;;;;;17.75;88.07;100699.53;20738700;28;20116;-70
2021/08/22 18:42:53;;;;;;;7.70;4.60;;;;;;;17.63;88.04;100717.63;20737947;28;20053;-70
2021/08/22 18:52:55;;;;;;;8.50;4.18;;;;;;;17.53;89.19;100744.50;20735424;28;20050;-70
2021/08/22 19:02:58;;;;;;;10.55;4.68;;;;;;;17.41;89.48;100753.78;20717913;28;20125;-70
2021/08/22 19:13:00;;;;;;;8.05;5.28;;;;;;;17.51;89.28;100768.41;20733597;28;20116;-71
2021/08/22 19:23:03;;;;;;;11.38;5.18;;;;;;;17.55;89.32;100770.00;20734781;28;20488;-71
2021/08/22 19:33:04;;;;;;;8.23;5.15;;;;;;;17.49;89.31;100783.50;20733867;28;20037;-70
2021/08/22 19:43:08;;;;;;;9.38;4.70;;;;;;;17.39;89.95;100787.38;20734617;28;20053;-70
2021/08/22 19:53:10;;;;;;;9.98;5.40;;;;;;;17.19;89.99;100799.56;20733867;28;20408;-69
2021/08/22 20:03:11;;;;;;;8.90;5.32;;;;;;;16.99;90.16;100807.38;20730105;28;20038;-70
2021/08/22 20:13:13;;;;;;;7.88;5.47;;;;;;;16.83;90.58;100812.34;20732582;28;20131;-70
2021/08/22 20:23:16;;;;;;;10.07;6.07;;;;;;;16.72;91.19;100830.38;20732179;28;20041;-70
2021/08/22 20:33:19;;;;;;;10.07;5.95;;;;;;;16.56;91.60;100829.13;20739383;28;20092;-70
2021/08/22 20:43:20;;;;;;;10.30;4.97;;;;;;;16.54;90.61;100837.13;20748094;28;20550;-70
2021/08/22 20:53:21;;;;;;;10.50;5.25;;;;;;;16.52;89.59;100836.28;20746518;28;20045;-70
2021/08/22 21:03:23;;;;;;;9.73;4.15;;;;;;;16.67;86.80;100845.47;20745862;28;20038;-71
2021/08/22 21:13:25;;;;;;;7.40;3.85;;;;;;;16.75;86.29;100835.53;20718149;28;20054;-71
2021/08/22 21:23:27;;;;;;;8.50;4.03;;;;;;;16.76;84.77;100834.63;20716412;28;20108;-71
2021/08/22 21:33:29;;;;;;;7.20;3.58;;;;;;;16.61;85.70;100837.75;20746890;28;20567;-71
2021/08/22 21:43:30;;;;;;;9.43;4.57;;;;;;;16.63;85.16;100834.16;20745175;28;20508;-71
2021/08/22 21:53:33;;;;;;;9.60;3.97;;;;;;;16.52;85.64;100844.22;20729144;28;20049;-71
2021/08/22 22:03:34;;;;;;;8.10;4.40;;;;;;;16.54;86.63;100847.69;20740755;28;20066;-71
2021/08/22 22:13:35;;;;;;;6.75;3.67;;;;;;;16.49;87.24;100839.03;20744401;28;20050;-71
2021/08/22 22:23:37;;;;;;;7.80;4.00;;;;;;;16.49;86.95;100832.91;20740310;28;20388;-72
2021/08/22 22:33:40;;;;;;;11.23;4.20;;;;;;;16.46;87.40;100841.78;20743558;28;20062;-72
2021/08/22 22:43:42;;;;;;;10.18;4.30;;;;;;;16.47;86.94;100846.16;20743526;28;20108;-72
2021/08/22 22:53:44;;;;;;;8.80;4.00;;;;;;;16.43;86.08;100852.44;20742364;28;20111;-72
2021/08/22 23:03:46;;;;;;;8.98;4.30;;;;;;;16.48;85.77;100839.97;20741252;28;20050;-72
2021/08/22 23:13:48;;;;;;;8.60;3.88;;;;;;;16.39;86.63;100853.47;20741187;28;20053;-72
2021/08/22 23:23:50;;;;;;;8.93;3.90;;;;;;;16.39;85.31;100848.19;20741197;28;20050;-72
2021/08/22 23:33:52;;;;;;;6.65;3.92;;;;;;;16.41;86.15;100851.63;20739556;28;20037;-72
2021/08/22 23:43:53;;;;;;;6.07;3.20;;;;;;;16.40;85.35;100856.06;20739387;28;20116;-72
2021/08/22 23:53:55;;;;;;;6.97;3.38;;;;;;;16.32;86.26;100847.50;20738575;28;20084;-71
